Time;durP1;ratioP1;P1;durP2;ratioP2;P2;SDS_P1;SDS_P2;PMS_P1;PMS_P2;Temp;Humidity;BMP_temperature;BMP_pressure;BME280_temperature;BME280_humidity;BME280_pressure;Samples;Min_cycle;Max_cycle;Signal;HPM_P1;HPM_P2
2022/09/25 00:01:01;;;;;;;28.73;23.73;;;13.20;99.90;;;;;;5094777;28;20469;-71
2022/09/25 00:03:29;;;;;;;30.80;23.50;;;13.20;99.90;;;;;;5091890;28;20457;-70
2022/09/25 00:06:02;;;;;;;22.97;20.03;;;13.20;99.90;;;;;;5091897;28;20493;-69
2022/09/25 00:08:29;;;;;;;24.90;18.77;;;13.10;99.90;;;;;;5095765;28;20462;-69
2022/09/25 00:10:56;;;;;;;24.20;19.60;;;13.10;99.90;;;;;;5097775;28;20840;-69
2022/09/25 00:13:26;;;;;;;23.97;17.00;;;13.10;99.90;;;;;;5096277;28;20969;-69
2022/09/25 00:15:55;;;;;;;22.10;17.83;;;13.10;99.90;;;;;;5089448;28;20485;-68
2022/09/25 00:21:04;;;;;;;22.30;16.17;;;13.00;99.90;;;;;;5090829;28;20902;-69
2022/09/25 00:23:32;;;;;;;20.13;17.03;;;12.90;99.90;;;;;;5092772;28;20462;-69
2022/09/25 00:26:00;;;;;;;21.53;18.27;;;12.90;99.90;;;;;;5095062;28;20549;-68
2022/09/25 00:28:30;;;;;;;30.73;18.50;;;12.90;99.90;;;;;;5091929;28;20502;-68
2022/09/25 00:30:58;;;;;;;24.90;18.37;;;12.80;99.90;;;;;;5092698;28;20468;-68
2022/09/25 00:33:27;;;;;;;23.43;19.83;;;12.80;99.90;;;;;;5092338;28;20818;-68
2022/09/25 00:35:54;;;;;;;28.53;19.73;;;12.80;99.90;;;;;;5095300;28;20543;-68
2022/09/25 00:38:21;;;;;;;25.13;19.73;;;12.70;99.90;;;;;;5094092;28;20470;-70
2022/09/25 00:40:48;;;;;;;25.63;19.40;;;12.80;99.90;;;;;;5094231;28;20976;-68
2022/09/25 00:43:32;;;;;;;27.03;20.30;;;12.80;99.90;;;;;;5095690;28;20495;-69
2022/09/25 00:46:01;;;;;;;29.20;21.03;;;12.80;99.90;;;;;;5097293;28;20469;-68
2022/09/25 00:48:30;;;;;;;28.10;19.97;;;12.80;99.90;;;;;;5105151;28;20965;-68
2022/09/25 00:50:59;;;;;;;24.00;18.70;;;12.70;99.90;;;;;;5093991;28;20457;-68
2022/09/25 00:53:30;;;;;;;30.33;20.27;;;12.70;99.90;;;;;;5092608;28;20469;-68
2022/09/25 00:56:01;;;;;;;30.10;19.83;;;12.70;99.90;;;;;;5093013;28;20454;-68
2022/09/25 00:58:30;;;;;;;28.57;19.67;;;12.70;99.90;;;;;;5094226;28;20485;-68
2022/09/25 01:00:58;;;;;;;25.37;19.13;;;12.70;99.90;;;;;;5097274;28;20872;-68
2022/09/25 01:03:26;;;;;;;21.93;19.63;;;12.70;99.90;;;;;;5098039;28;20836;-69
2022/09/25 01:05:54;;;;;;;24.80;19.03;;;12.70;99.90;;;;;;5095314;28;20478;-68
2022/09/25 01:08:24;;;;;;;26.87;18.50;;;12.70;99.90;;;;;;5101033;28;20457;-68
2022/09/25 01:10:52;;;;;;;24.60;18.03;;;12.70;99.90;;;;;;5094064;28;20489;-70
2022/09/25 01:13:20;;;;;;;24.20;16.40;;;12.70;99.90;;;;;;5098909;28;20967;-68
2022/09/25 01:15:53;;;;;;;22.70;17.33;;;12.70;99.90;;;;;;5099397;28;20462;-68
2022/09/25 01:18:35;;;;;;;31.73;17.10;;;12.70;99.90;;;;;;5091806;28;20976;-68
2022/09/25 01:21:13;;;;;;;33.33;16.40;;;12.70;99.90;;;;;;5098066;28;20481;-70
2022/09/25 01:24:02;;;;;;;22.40;15.53;;;12.70;99.90;;;;;;5106550;28;20480;-68
2022/09/25 01:26:50;;;;;;;17.07;14.67;;;12.60;99.90;;;;;;5096825;28;20468;-68
2022/09/25 01:29:22;;;;;;;25.40;14.17;;;12.60;99.90;;;;;;5095839;28;20560;-68
2022/09/25 01:32:02;;;;;;;15.53;13.43;;;12.60;99.90;;;;;;5092396;28;20557;-70
2022/09/25 01:34:38;;;;;;;22.10;13.93;;;12.60;99.90;;;;;;5100853;28;20490;-68
2022/09/25 01:37:12;;;;;;;21.17;13.10;;;12.60;99.90;;;;;;5091647;28;20890;-68
2022/09/25 01:39:45;;;;;;;20.63;12.53;;;12.60;99.90;;;;;;5089382;28;20488;-68
2022/09/25 01:42:20;;;;;;;33.47;13.77;;;12.60;99.90;;;;;;5098150;28;20473;-68
2022/09/25 01:44:55;;;;;;;23.83;12.03;;;12.60;99.90;;;;;;5100305;28;20471;-70
2022/09/25 01:47:27;;;;;;;18.37;11.30;;;12.60;99.90;;;;;;5099297;28;20967;-70
2022/09/25 01:49:58;;;;;;;15.63;11.43;;;12.60;99.90;;;;;;5091537;28;20460;-69
2022/09/25 01:52:31;;;;;;;15.53;10.50;;;12.70;99.90;;;;;;5092305;28;20499;-67
2022/09/25 01:55:05;;;;;;;18.23;10.20;;;12.60;99.90;;;;;;5095270;28;21051;-69
2022/09/25 01:57:36;;;;;;;15.70;8.97;;;12.60;99.90;;;;;;5090254;28;21011;-67
2022/09/25 02:00:08;;;;;;;15.70;9.67;;;12.60;99.90;;;;;;5093560;28;20854;-68
2022/09/25 02:02:40;;;;;;;10.57;8.40;;;12.50;99.90;;;;;;5092790;28;20457;-68
2022/09/25 02:05:12;;;;;;;12.33;9.20;;;12.50;99.90;;;;;;5093338;28;20458;-66
2022/09/25 02:07:44;;;;;;;17.17;7.73;;;12.50;99.90;;;;;;5091942;28;20457;-68
2022/09/25 02:10:15;;;;;;;17.83;7.47;;;12.50;99.90;;;;;;5090606;28;20462;-68
2022/09/25 02:12:46;;;;;;;13.60;7.80;;;12.50;99.90;;;;;;5092004;28;20858;-70
2022/09/25 02:15:19;;;;;;;16.30;7.20;;;12.50;99.90;;;;;;5096784;28;20457;-70
2022/09/25 02:20:40;;;;;;;11.67;7.13;;;12.50;99.90;;;;;;5098045;28;20483;-69
2022/09/25 02:23:22;;;;;;;15.90;7.80;;;12.50;99.90;;;;;;5092383;28;20477;-69
2022/09/25 02:25:55;;;;;;;10.77;7.80;;;12.50;99.90;;;;;;5097305;28;21050;-68
2022/09/25 02:28:22;;;;;;;12.43;7.50;;;12.50;99.90;;;;;;5092153;28;20531;-68
2022/09/25 02:30:53;;;;;;;14.97;7.57;;;12.50;99.90;;;;;;5094114;28;20457;-68
2022/09/25 02:33:22;;;;;;;12.80;7.27;;;12.50;99.90;;;;;;5091348;28;20490;-68
2022/09/25 02:35:48;;;;;;;12.57;7.50;;;12.50;99.90;;;;;;5096177;28;20998;-68
2022/09/25 02:38:16;;;;;;;16.60;7.30;;;12.50;99.90;;;;;;5092646;28;20458;-70
2022/09/25 02:40:48;;;;;;;13.33;7.33;;;12.50;99.90;;;;;;5098085;28;20582;-69
2022/09/25 02:43:26;;;;;;;15.23;7.00;;;12.50;99.90;;;;;;5092115;28;20469;-68
2022/09/25 02:46:03;;;;;;;24.73;7.63;;;12.50;99.90;;;;;;5092064;28;20473;-70
2022/09/25 02:48:38;;;;;;;23.20;8.07;;;12.50;99.90;;;;;;5095239;28;20464;-68
2022/09/25 02:51:12;;;;;;;13.30;7.27;;;12.50;99.90;;;;;;5101123;28;20822;-69
2022/09/25 02:53:43;;;;;;;17.57;6.67;;;12.50;99.90;;;;;;5095840;28;20462;-67
2022/09/25 02:56:14;;;;;;;11.90;6.13;;;12.50;99.90;;;;;;5093219;28;20773;-68
2022/09/25 02:58:44;;;;;;;9.30;6.33;;;12.40;99.90;;;;;;5087602;28;20547;-68
2022/09/25 03:01:16;;;;;;;26.40;7.43;;;12.40;99.90;;;;;;5097971;28;20476;-70
2022/09/25 03:03:45;;;;;;;12.37;7.30;;;12.50;99.90;;;;;;5093206;28;20493;-69
2022/09/25 03:06:12;;;;;;;13.93;6.47;;;12.50;99.90;;;;;;5094296;28;20457;-68
2022/09/25 03:08:42;;;;;;;19.87;6.17;;;12.50;99.90;;;;;;5097892;28;20533;-68
2022/09/25 03:11:11;;;;;;;15.50;7.23;;;12.50;99.90;;;;;;5087988;28;20470;-69
2022/09/25 03:13:39;;;;;;;10.70;5.80;;;12.50;99.90;;;;;;5091510;28;20464;-69
2022/09/25 03:16:10;;;;;;;12.40;6.70;;;12.50;99.90;;;;;;5092087;28;20501;-69
2022/09/25 03:18:38;;;;;;;13.13;7.20;;;12.40;99.90;;;;;;5090936;28;20461;-68
2022/09/25 03:21:05;;;;;;;14.03;7.13;;;12.40;99.90;;;;;;5095787;28;20473;-69
2022/09/25 03:23:33;;;;;;;18.60;8.17;;;12.50;99.90;;;;;;5092538;28;20473;-69
2022/09/25 03:26:00;;;;;;;19.43;7.57;;;12.40;99.90;;;;;;5092601;28;20512;-69
2022/09/25 03:28:27;;;;;;;16.53;9.10;;;12.40;99.90;;;;;;5096752;28;20531;-70
2022/09/25 03:30:59;;;;;;;19.17;7.30;;;12.40;99.90;;;;;;5092066;28;20775;-68
2022/09/25 03:33:28;;;;;;;17.50;9.23;;;12.40;99.90;;;;;;5096012;28;20450;-68
2022/09/25 03:36:05;;;;;;;15.20;8.30;;;12.30;99.90;;;;;;5098687;28;20457;-68
2022/09/25 03:38:32;;;;;;;11.20;7.93;;;12.30;99.90;;;;;;5090325;28;20461;-68
2022/09/25 03:40:58;;;;;;;11.33;8.03;;;12.30;99.90;;;;;;5091715;28;20494;-69
2022/09/25 03:43:28;;;;;;;9.00;7.97;;;12.30;99.90;;;;;;5096380;28;20526;-69
2022/09/25 03:45:55;;;;;;;17.97;8.43;;;12.30;99.90;;;;;;5094297;28;20449;-68
2022/09/25 03:48:22;;;;;;;10.60;7.50;;;12.30;99.90;;;;;;5091077;28;20544;-69
2022/09/25 03:50:49;;;;;;;14.73;8.37;;;12.30;99.90;;;;;;5086830;28;20983;-68
2022/09/25 03:53:18;;;;;;;19.97;7.90;;;12.20;99.90;;;;;;5092907;28;20550;-70
2022/09/25 03:55:47;;;;;;;14.00;6.33;;;12.20;99.90;;;;;;5093294;28;20498;-70
2022/09/25 03:58:15;;;;;;;17.30;6.70;;;12.20;99.90;;;;;;5093851;28;21009;-69
2022/09/25 04:00:44;;;;;;;9.60;5.90;;;12.20;99.90;;;;;;5093168;28;20504;-68
2022/09/25 04:03:11;;;;;;;7.23;5.87;;;12.20;99.90;;;;;;5091077;28;20453;-68
2022/09/25 04:05:39;;;;;;;15.97;7.20;;;12.20;99.90;;;;;;5090923;28;20462;-68
2022/09/25 04:08:06;;;;;;;13.87;5.73;;;12.10;99.90;;;;;;5088042;28;20464;-68
2022/09/25 04:10:37;;;;;;;6.17;4.83;;;12.10;99.90;;;;;;5085520;28;20690;-69
2022/09/25 04:13:05;;;;;;;10.30;5.93;;;12.10;99.90;;;;;;5086353;28;20461;-69
2022/09/25 04:15:32;;;;;;;6.93;5.50;;;12.10;99.90;;;;;;5093583;28;20819;-68
2022/09/25 04:17:59;;;;;;;15.40;6.40;;;12.10;99.90;;;;;;5089454;28;20486;-68
2022/09/25 04:20:27;;;;;;;10.10;5.37;;;12.10;99.90;;;;;;5090671;28;20478;-69
2022/09/25 04:22:53;;;;;;;8.17;5.77;;;12.10;99.90;;;;;;5091383;28;20465;-70
2022/09/25 04:25:24;;;;;;;13.50;6.33;;;12.10;99.90;;;;;;5092788;28;20453;-67
2022/09/25 04:27:54;;;;;;;9.30;5.50;;;12.00;99.90;;;;;;5092862;28;20473;-69
2022/09/25 04:30:21;;;;;;;13.83;5.90;;;12.10;99.90;;;;;;5091255;28;20465;-68
2022/09/25 04:35:33;;;;;;;9.20;5.53;;;12.10;99.90;;;;;;5094184;28;20472;-69
2022/09/25 04:38:00;;;;;;;9.27;5.60;;;12.00;99.90;;;;;;5088310;28;20470;-68
2022/09/25 04:40:27;;;;;;;7.83;5.53;;;12.00;99.90;;;;;;5094634;28;21318;-68
2022/09/25 04:43:00;;;;;;;7.63;6.23;;;11.90;99.90;;;;;;5090751;28;20551;-70
2022/09/25 04:45:28;;;;;;;12.10;5.80;;;12.00;99.90;;;;;;5095144;28;20470;-68
2022/09/25 04:47:55;;;;;;;8.03;5.43;;;12.00;99.90;;;;;;5095442;28;20477;-68
2022/09/25 04:50:22;;;;;;;11.73;5.40;;;11.90;99.90;;;;;;5089446;28;20863;-68
2022/09/25 04:52:50;;;;;;;8.00;5.30;;;11.90;99.90;;;;;;5089499;28;20515;-67
2022/09/25 04:55:17;;;;;;;10.87;5.73;;;11.90;99.90;;;;;;5094906;28;20993;-69
2022/09/25 04:57:44;;;;;;;8.50;5.20;;;11.90;99.90;;;;;;5090918;28;20458;-68
2022/09/25 05:00:18;;;;;;;13.27;5.60;;;11.90;99.90;;;;;;5089499;28;20953;-68
2022/09/25 05:02:44;;;;;;;18.03;5.93;;;11.90;99.90;;;;;;5091509;28;20502;-70
2022/09/25 05:05:13;;;;;;;8.47;6.03;;;11.80;99.90;;;;;;5096162;28;20506;-68
2022/09/25 05:07:39;;;;;;;12.73;5.17;;;11.80;99.90;;;;;;5101119;28;20497;-68
2022/09/25 05:10:08;;;;;;;12.60;5.33;;;11.80;99.90;;;;;;5096422;28;21109;-68
2022/09/25 05:12:36;;;;;;;9.60;5.67;;;11.80;99.90;;;;;;5100230;28;20576;-68
2022/09/25 05:15:02;;;;;;;8.80;5.27;;;11.80;99.90;;;;;;5095392;28;20750;-68
2022/09/25 05:17:30;;;;;;;14.83;5.77;;;11.90;99.90;;;;;;5092579;28;20468;-68
2022/09/25 05:19:57;;;;;;;9.70;6.30;;;11.80;99.90;;;;;;5095155;28;21011;-68
2022/09/25 05:22:24;;;;;;;14.87;5.70;;;11.70;99.90;;;;;;5092557;28;20504;-69
2022/09/25 05:24:52;;;;;;;11.63;6.20;;;11.70;99.90;;;;;;5095350;28;20978;-68
2022/09/25 05:27:20;;;;;;;9.47;5.57;;;11.80;99.90;;;;;;5097008;28;20461;-68
2022/09/25 05:29:48;;;;;;;13.03;6.23;;;11.80;99.90;;;;;;5098793;28;20800;-69
2022/09/25 05:32:14;;;;;;;8.80;5.63;;;11.70;99.90;;;;;;5090080;28;20472;-68
2022/09/25 05:34:43;;;;;;;10.20;6.30;;;11.60;99.90;;;;;;5098331;28;20841;-70
2022/09/25 05:37:11;;;;;;;15.40;7.57;;;11.70;99.90;;;;;;5092929;28;21014;-70
2022/09/25 05:39:37;;;;;;;10.00;6.00;;;11.80;99.90;;;;;;5095209;28;20514;-70
2022/09/25 05:42:05;;;;;;;8.33;6.00;;;11.70;99.90;;;;;;5090440;28;20493;-68
2022/09/25 05:44:32;;;;;;;12.67;6.67;;;11.60;99.90;;;;;;5093337;28;20480;-68
2022/09/25 05:46:59;;;;;;;9.30;6.90;;;11.60;99.90;;;;;;5096493;28;20983;-68
2022/09/25 05:49:25;;;;;;;9.40;7.27;;;11.60;99.90;;;;;;5094283;28;20497;-69
2022/09/25 05:51:54;;;;;;;12.30;6.97;;;11.60;99.90;;;;;;5090691;28;20454;-68
2022/09/25 05:54:21;;;;;;;11.93;6.43;;;11.60;99.90;;;;;;5095848;28;20450;-68
2022/09/25 05:56:48;;;;;;;10.10;5.73;;;11.60;99.90;;;;;;5089957;28;20844;-68
2022/09/25 05:59:16;;;;;;;5.93;5.33;;;11.60;99.90;;;;;;5092252;28;20462;-68
2022/09/25 06:01:43;;;;;;;14.27;6.13;;;11.60;99.90;;;;;;5092052;28;20875;-69
2022/09/25 06:04:10;;;;;;;9.60;6.23;;;11.60;99.90;;;;;;5091528;28;20461;-68
2022/09/25 06:06:37;;;;;;;7.67;6.10;;;11.70;99.90;;;;;;5093204;28;20469;-70
2022/09/25 06:09:06;;;;;;;5.93;5.40;;;11.70;99.90;;;;;;5092628;28;21079;-69
2022/09/25 06:11:32;;;;;;;7.13;5.30;;;11.80;99.90;;;;;;5091716;28;20595;-70
2022/09/25 06:13:59;;;;;;;11.23;6.40;;;11.90;99.90;;;;;;5091797;28;20469;-68
2022/09/25 06:16:27;;;;;;;13.43;6.17;;;11.90;99.90;;;;;;5092485;28;20967;-68
2022/09/25 06:18:54;;;;;;;15.83;5.97;;;11.90;99.90;;;;;;5096402;28;20450;-70
2022/09/25 06:21:22;;;;;;;11.93;6.40;;;11.90;99.90;;;;;;5093397;28;20489;-70
2022/09/25 06:23:49;;;;;;;13.07;5.70;;;12.00;99.90;;;;;;5091179;28;20458;-69
2022/09/25 06:26:18;;;;;;;12.20;6.27;;;11.90;99.90;;;;;;5095213;28;20547;-68
2022/09/25 06:28:45;;;;;;;9.53;5.60;;;11.90;99.90;;;;;;5094413;28;20837;-68
2022/09/25 06:31:12;;;;;;;17.30;6.17;;;12.00;99.90;;;;;;5094193;28;20485;-68
2022/09/25 06:33:40;;;;;;;14.17;5.67;;;12.00;99.90;;;;;;5091004;28;20979;-70
2022/09/25 06:36:08;;;;;;;18.13;6.07;;;12.10;99.90;;;;;;5092554;28;20458;-68
2022/09/25 06:38:34;;;;;;;14.00;6.17;;;12.10;99.90;;;;;;5093320;28;20874;-69
2022/09/25 06:41:02;;;;;;;9.60;6.70;;;12.00;99.90;;;;;;5088736;28;20500;-70
2022/09/25 06:43:30;;;;;;;14.67;6.97;;;12.10;99.90;;;;;;5093140;28;20442;-68
2022/09/25 06:46:01;;;;;;;11.00;7.30;;;12.10;99.90;;;;;;5092697;28;20462;-68
2022/09/25 06:48:28;;;;;;;11.73;7.07;;;12.20;99.90;;;;;;5095054;28;20463;-69
2022/09/25 06:50:56;;;;;;;10.50;6.50;;;12.20;99.90;;;;;;5090930;28;20523;-68
2022/09/25 06:53:25;;;;;;;10.30;6.80;;;12.20;99.90;;;;;;5094798;28;20501;-69
2022/09/25 06:55:53;;;;;;;10.13;6.80;;;12.10;99.90;;;;;;5089711;28;20844;-70
2022/09/25 06:58:21;;;;;;;8.00;6.93;;;11.90;99.90;;;;;;5094458;28;20461;-68
2022/09/25 07:00:52;;;;;;;8.20;6.70;;;11.90;99.90;;;;;;5093756;28;21281;-67
2022/09/25 07:06:06;;;;;;;7.67;6.53;;;11.70;99.90;;;;;;5090784;28;20452;-68
2022/09/25 07:08:33;;;;;;;21.97;6.57;;;11.60;99.90;;;;;;5092549;28;20465;-68
2022/09/25 07:11:01;;;;;;;12.70;6.60;;;11.60;99.90;;;;;;5089963;28;20500;-68
2022/09/25 07:13:32;;;;;;;13.00;7.10;;;11.50;99.90;;;;;;5091089;28;21220;-69
2022/09/25 07:16:03;;;;;;;12.90;6.60;;;11.50;99.90;;;;;;5096061;28;20462;-69
2022/09/25 07:18:30;;;;;;;9.23;7.30;;;11.50;99.90;;;;;;5094665;28;20590;-70
2022/09/25 07:21:01;;;;;;;10.63;7.17;;;11.60;99.90;;;;;;5098969;28;20464;-69
2022/09/25 07:23:30;;;;;;;9.80;6.40;;;11.60;99.90;;;;;;5096844;28;20552;-68
2022/09/25 07:25:57;;;;;;;21.10;7.27;;;11.60;99.90;;;;;;5093715;28;20468;-68
2022/09/25 07:28:23;;;;;;;15.93;7.07;;;11.50;99.90;;;;;;5089985;28;20893;-68
2022/09/25 07:30:51;;;;;;;25.40;7.23;;;11.40;99.90;;;;;;5089068;28;20516;-70
2022/09/25 07:33:23;;;;;;;17.80;6.83;;;11.50;99.90;;;;;;5092301;28;21099;-69
2022/09/25 07:35:51;;;;;;;15.10;7.33;;;11.50;99.90;;;;;;5093281;28;20548;-69
2022/09/25 07:38:18;;;;;;;8.80;6.37;;;11.40;99.90;;;;;;5091166;28;20548;-68
2022/09/25 07:40:45;;;;;;;6.60;6.10;;;11.40;99.90;;;;;;5091949;28;20454;-71
2022/09/25 07:43:12;;;;;;;14.50;6.50;;;11.40;99.90;;;;;;5091946;28;20497;-71
2022/09/25 07:45:40;;;;;;;7.63;6.17;;;11.40;99.90;;;;;;5096940;28;20548;-69
2022/09/25 07:48:07;;;;;;;12.07;6.17;;;11.50;99.90;;;;;;5091542;28;20834;-69
2022/09/25 07:50:35;;;;;;;10.70;5.90;;;11.50;99.90;;;;;;5097406;28;20454;-68
2022/09/25 07:53:03;;;;;;;16.00;6.57;;;11.60;99.90;;;;;;5100209;28;20868;-69
2022/09/25 07:55:30;;;;;;;16.63;7.00;;;11.70;99.90;;;;;;5094277;28;20493;-68
2022/09/25 07:57:57;;;;;;;15.00;6.17;;;11.80;99.90;;;;;;5091723;28;20457;-70
2022/09/25 08:00:24;;;;;;;11.63;5.87;;;11.90;99.90;;;;;;5085822;28;20484;-69
2022/09/25 08:02:58;;;;;;;14.23;6.13;;;12.00;99.90;;;;;;5089720;28;20611;-70
2022/09/25 08:05:25;;;;;;;8.63;5.97;;;12.10;99.90;;;;;;5091332;28;20929;-69
2022/09/25 08:07:54;;;;;;;12.20;6.30;;;12.20;99.90;;;;;;5089734;28;20505;-68
2022/09/25 08:10:22;;;;;;;22.40;6.57;;;12.20;99.90;;;;;;5089027;28;20975;-70
2022/09/25 08:12:50;;;;;;;7.97;6.33;;;12.30;99.90;;;;;;5091080;28;20482;-68
2022/09/25 08:15:17;;;;;;;19.37;6.60;;;12.40;99.90;;;;;;5090375;28;20469;-68
2022/09/25 08:17:45;;;;;;;18.83;7.27;;;12.50;99.90;;;;;;5095048;28;20458;-69
2022/09/25 08:20:12;;;;;;;8.97;6.50;;;12.70;99.90;;;;;;5090506;28;20461;-71
2022/09/25 08:22:38;;;;;;;8.50;6.70;;;12.70;99.90;;;;;;5092402;28;20492;-71
2022/09/25 08:25:09;;;;;;;7.50;6.50;;;12.80;99.90;;;;;;5087282;28;20470;-69
2022/09/25 08:27:39;;;;;;;14.60;7.90;;;12.90;99.90;;;;;;5094496;28;21181;-70
2022/09/25 08:30:08;;;;;;;9.90;7.00;;;13.00;99.90;;;;;;5086594;28;21068;-69
2022/09/25 08:32:36;;;;;;;11.50;7.60;;;13.10;99.90;;;;;;5096848;28;20722;-68
2022/09/25 08:35:05;;;;;;;10.80;7.97;;;13.20;99.90;;;;;;5087938;28;20450;-68
2022/09/25 08:37:32;;;;;;;14.40;10.00;;;13.30;99.90;;;;;;5094554;28;20461;-72
2022/09/25 08:39:59;;;;;;;19.53;9.20;;;13.40;99.90;;;;;;5087355;28;20466;-70
2022/09/25 08:42:33;;;;;;;12.53;8.90;;;13.40;99.90;;;;;;5088484;28;20485;-68
2022/09/25 08:50:36;;;;;;;9.40;8.60;;;13.60;99.90;;;;;;5097497;28;20850;-68
2022/09/25 08:53:07;;;;;;;15.40;10.30;;;13.70;99.90;;;;;;5096725;28;20454;-68
2022/09/25 08:58:25;;;;;;;9.73;8.90;;;13.80;99.90;;;;;;5089047;28;20538;-68
2022/09/25 09:00:55;;;;;;;9.93;9.10;;;13.90;99.90;;;;;;5093919;28;20868;-68
2022/09/25 09:03:25;;;;;;;11.50;10.50;;;14.00;99.90;;;;;;5088791;28;20481;-67
2022/09/25 09:05:57;;;;;;;13.47;11.10;;;14.20;99.90;;;;;;5096681;28;20814;-68
2022/09/25 09:08:28;;;;;;;12.57;11.27;;;14.30;99.90;;;;;;5093996;28;20966;-67
2022/09/25 09:11:00;;;;;;;13.00;11.67;;;14.50;99.90;;;;;;5097239;28;20485;-70
2022/09/25 09:13:34;;;;;;;12.90;11.77;;;14.70;99.90;;;;;;5089571;28;20979;-68
2022/09/25 09:16:09;;;;;;;12.40;11.50;;;14.90;99.90;;;;;;5095050;28;20847;-68
2022/09/25 09:18:38;;;;;;;15.57;13.03;;;15.00;99.90;;;;;;5093996;28;20488;-68
2022/09/25 09:21:11;;;;;;;11.77;11.07;;;14.90;99.90;;;;;;5095061;28;20464;-67
2022/09/25 09:23:45;;;;;;;11.80;10.90;;;14.80;99.90;;;;;;5092415;28;20489;-68
2022/09/25 09:26:17;;;;;;;14.23;12.97;;;14.80;99.90;;;;;;5091240;28;20538;-68
2022/09/25 09:29:13;;;;;;;12.23;11.40;;;14.80;99.90;;;;;;5089623;28;20547;-68
2022/09/25 09:31:52;;;;;;;13.57;12.17;;;15.10;99.90;;;;;;5093670;28;20841;-68
2022/09/25 09:34:35;;;;;;;13.40;12.17;;;15.40;99.90;;;;;;5098747;28;20457;-69
2022/09/25 09:37:14;;;;;;;12.63;11.63;;;15.70;99.90;;;;;;5099153;28;20466;-70
2022/09/25 09:39:52;;;;;;;12.90;11.87;;;16.10;99.90;;;;;;5092827;28;20453;-68
2022/09/25 09:42:27;;;;;;;13.37;12.37;;;16.70;99.90;;;;;;5095585;28;20485;-71
2022/09/25 09:45:02;;;;;;;12.70;11.80;;;17.20;99.90;;;;;;5091528;28;20450;-68
2022/09/25 09:47:39;;;;;;;12.17;11.53;;;17.90;99.90;;;;;;5092450;28;20468;-68
2022/09/25 09:50:28;;;;;;;15.83;12.67;;;18.20;99.90;;;;;;5091720;28;20462;-68
2022/09/25 09:53:01;;;;;;;13.90;13.00;;;18.20;99.90;;;;;;5095084;28;20613;-69
2022/09/25 09:55:36;;;;;;;12.70;12.00;;;18.10;99.90;;;;;;5095091;28;20468;-68
2022/09/25 09:58:10;;;;;;;12.13;11.40;;;17.70;99.90;;;;;;5095432;28;20510;-69
2022/09/25 10:00:39;;;;;;;12.93;11.70;;;18.10;99.90;;;;;;5091001;28;20933;-68
2022/09/25 10:03:14;;;;;;;12.20;11.30;;;18.80;99.90;;;;;;5091504;28;20579;-69
2022/09/25 10:05:44;;;;;;;13.27;12.27;;;19.50;99.90;;;;;;5089363;28;20462;-68
2022/09/25 10:08:11;;;;;;;11.53;10.47;;;19.00;99.90;;;;;;5091182;28;20458;-71
2022/09/25 10:10:41;;;;;;;12.77;11.73;;;18.40;99.90;;;;;;5095352;28;20851;-70
2022/09/25 10:13:16;;;;;;;12.60;11.57;;;18.10;99.90;;;;;;5099538;28;20472;-68
2022/09/25 10:15:49;;;;;;;12.47;11.63;;;17.40;99.90;;;;;;5092138;28;20452;-68
2022/09/25 10:18:18;;;;;;;12.43;11.17;;;16.70;99.90;;;;;;5094561;28;20462;-68
2022/09/25 10:20:50;;;;;;;11.80;10.90;;;16.80;99.90;;;;;;5091511;28;20454;-71
2022/09/25 10:23:33;;;;;;;11.63;10.70;;;17.40;99.90;;;;;;5094871;28;20497;-69
2022/09/25 10:26:01;;;;;;;11.70;10.90;;;17.70;99.90;;;;;;5095241;28;20456;-69
2022/09/25 10:28:31;;;;;;;13.87;12.40;;;18.00;99.90;;;;;;5090432;28;20488;-69
2022/09/25 10:31:01;;;;;;;14.10;12.17;;;18.70;99.90;;;;;;5089638;28;20469;-70
2022/09/25 10:33:29;;;;;;;13.03;12.00;;;19.50;99.90;;;;;;5092502;28;20464;-70
2022/09/25 10:35:57;;;;;;;13.07;12.20;;;19.90;99.90;;;;;;5092391;28;20473;-71
2022/09/25 10:38:31;;;;;;;14.70;13.57;;;20.10;99.90;;;;;;5090392;28;20488;-69
2022/09/25 10:41:03;;;;;;;15.73;12.90;;;20.60;99.90;;;;;;5099840;28;20936;-69
2022/09/25 10:43:30;;;;;;;12.63;11.90;;;20.00;99.90;;;;;;5092119;28;20482;-71
2022/09/25 10:46:11;;;;;;;13.83;12.83;;;19.20;99.90;;;;;;5091621;28;20473;-68
2022/09/25 10:51:25;;;;;;;13.30;12.10;;;18.30;99.90;;;;;;5090126;28;20479;-71
2022/09/25 10:54:10;;;;;;;14.10;12.70;;;19.60;99.90;;;;;;5092098;28;20907;-69
2022/09/25 10:56:38;;;;;;;13.60;12.80;;;20.50;99.90;;;;;;5088891;28;20554;-72
2022/09/25 10:59:13;;;;;;;14.03;13.07;;;21.10;99.90;;;;;;5093894;28;20469;-72
2022/09/25 11:01:44;;;;;;;14.10;13.07;;;21.90;99.90;;;;;;5090776;28;20963;-70
2022/09/25 11:04:16;;;;;;;14.70;13.90;;;22.20;99.90;;;;;;5095014;28;20709;-70
2022/09/25 11:06:45;;;;;;;15.07;14.07;;;21.50;99.90;;;;;;5092687;28;20475;-69
2022/09/25 11:09:15;;;;;;;14.70;13.80;;;20.40;99.90;;;;;;5091702;28;20468;-68
2022/09/25 11:11:45;;;;;;;15.10;14.30;;;19.30;99.90;;;;;;5092320;28;20486;-70
2022/09/25 11:14:23;;;;;;;15.27;14.27;;;18.40;99.90;;;;;;5092956;28;20600;-69
2022/09/25 11:16:54;;;;;;;13.97;13.00;;;17.50;99.90;;;;;;5088962;28;20458;-69
2022/09/25 11:19:27;;;;;;;14.00;13.00;;;17.60;99.90;;;;;;5094148;28;20541;-68
2022/09/25 11:22:03;;;;;;;13.83;12.80;;;18.50;99.90;;;;;;5092570;28;20461;-69
2022/09/25 11:24:41;;;;;;;13.90;12.90;;;19.40;99.90;;;;;;5088550;28;20869;-68
2022/09/25 11:27:14;;;;;;;13.87;13.17;;;20.10;99.90;;;;;;5092223;28;20445;-70
2022/09/25 11:29:53;;;;;;;14.53;13.53;;;20.20;99.90;;;;;;5095669;28;20499;-71
2022/09/25 11:32:26;;;;;;;14.33;13.30;;;20.10;99.90;;;;;;5090343;28;20449;-68
2022/09/25 11:35:04;;;;;;;14.07;13.07;;;20.50;99.90;;;;;;5088056;28;20599;-69
2022/09/25 11:37:39;;;;;;;16.33;14.40;;;21.00;99.90;;;;;;5089091;28;20458;-68
2022/09/25 11:43:18;;;;;;;15.00;14.20;;;21.50;99.00;;;;;;5089775;28;20481;-71
2022/09/25 11:45:51;;;;;;;14.97;14.10;;;21.50;97.50;;;;;;5092949;28;20484;-67
2022/09/25 11:48:33;;;;;;;15.57;14.50;;;21.40;97.30;;;;;;5091855;28;21078;-70
2022/09/25 11:51:17;;;;;;;15.17;14.13;;;21.20;97.70;;;;;;5096918;28;20457;-68
2022/09/25 11:53:55;;;;;;;16.13;15.03;;;21.50;97.40;;;;;;5091761;28;20980;-68
2022/09/25 11:56:30;;;;;;;15.80;14.33;;;21.40;97.60;;;;;;5089565;28;20468;-68
2022/09/25 11:59:16;;;;;;;15.90;14.57;;;22.00;97.90;;;;;;5091795;28;20456;-68
2022/09/25 12:01:48;;;;;;;15.00;14.10;;;22.60;97.90;;;;;;5093995;28;20982;-68
2022/09/25 12:04:32;;;;;;;15.70;14.80;;;23.00;96.20;;;;;;5095422;28;20862;-69
2022/09/25 12:07:12;;;;;;;16.20;15.10;;;23.20;96.50;;;;;;5089297;28;20470;-70
2022/09/25 12:10:12;;;;;;;15.77;14.80;;;23.40;97.60;;;;;;5090072;28;20460;-69
2022/09/25 12:12:47;;;;;;;14.80;14.00;;;22.00;96.60;;;;;;5051319;28;21108;-71
2022/09/25 12:15:22;;;;;;;15.13;14.23;;;21.40;97.70;;;;;;5092052;28;20469;-71
2022/09/25 12:17:58;;;;;;;15.20;14.40;;;22.30;97.30;;;;;;5093334;28;20488;-68
2022/09/25 12:20:32;;;;;;;15.57;14.40;;;23.00;94.10;;;;;;5090944;28;20454;-68
2022/09/25 12:23:11;;;;;;;14.63;13.90;;;22.50;92.60;;;;;;5089741;28;20477;-69
2022/09/25 12:25:56;;;;;;;14.70;13.80;;;22.50;92.30;;;;;;5095040;28;20458;-71
2022/09/25 12:28:31;;;;;;;14.93;13.97;;;22.70;91.10;;;;;;5094525;28;20482;-71
2022/09/25 12:31:06;;;;;;;15.50;14.60;;;22.70;92.10;;;;;;5099073;28;20827;-69
2022/09/25 12:33:41;;;;;;;15.20;14.23;;;23.00;93.20;;;;;;5095955;28;20460;-70
2022/09/25 12:36:16;;;;;;;15.90;14.90;;;23.10;92.70;;;;;;5095311;28;20465;-71
2022/09/25 12:38:50;;;;;;;15.70;14.80;;;22.30;93.10;;;;;;5091381;28;20467;-70
2022/09/25 12:41:27;;;;;;;15.60;14.77;;;21.00;93.00;;;;;;5094683;28;20868;-70
2022/09/25 12:44:00;;;;;;;15.60;14.73;;;20.10;93.60;;;;;;5093103;28;20972;-69
2022/09/25 12:46:32;;;;;;;14.87;14.07;;;19.60;94.40;;;;;;5092835;28;20498;-70
2022/09/25 12:49:04;;;;;;;15.17;14.00;;;19.60;96.10;;;;;;5093325;28;20465;-69
2022/09/25 12:51:39;;;;;;;16.10;14.97;;;20.60;95.20;;;;;;5100297;28;20465;-70
2022/09/25 12:54:21;;;;;;;16.30;14.90;;;21.60;95.60;;;;;;5097570;28;20458;-70
2022/09/25 12:56:56;;;;;;;14.67;13.80;;;21.90;93.60;;;;;;5091514;28;20457;-72
2022/09/25 12:59:27;;;;;;;15.00;13.77;;;21.60;92.90;;;;;;5093532;28;20461;-70
2022/09/25 13:02:02;;;;;;;15.70;14.60;;;22.30;94.70;;;;;;5090573;28;20454;-70
2022/09/25 13:04:54;;;;;;;16.23;15.03;;;22.40;92.20;;;;;;5099732;28;20484;-72
2022/09/25 13:07:28;;;;;;;15.67;14.77;;;21.30;93.00;;;;;;5102260;28;20458;-71
2022/09/25 13:09:55;;;;;;;15.33;14.30;;;20.20;94.00;;;;;;5092637;28;21158;-70
2022/09/25 13:12:33;;;;;;;15.03;14.13;;;20.00;94.00;;;;;;5098792;28;20814;-71
2022/09/25 13:15:05;;;;;;;15.73;14.60;;;20.40;95.20;;;;;;5095436;28;20484;-70
2022/09/25 13:17:33;;;;;;;15.47;14.60;;;21.30;94.30;;;;;;5094611;28;20531;-70